createdAt,value
2018-07-05T00:02:10.550Z,25.17
2018-07-05T00:04:37.233Z,25.17
2018-07-05T00:07:03.990Z,25.15
2018-07-05T00:09:30.712Z,25.16
2018-07-05T00:11:57.393Z,25.16
2018-07-05T00:14:24.133Z,25.16
2018-07-05T00:16:50.778Z,25.14
2018-07-05T00:19:17.456Z,25.14
2018-07-05T00:21:44.146Z,25.14
2018-07-05T00:24:10.821Z,25.13
2018-07-05T00:26:37.503Z,25.14
2018-07-05T00:29:04.226Z,25.12
2018-07-05T00:31:30.907Z,25.12
2018-07-05T00:33:57.581Z,25.12
2018-07-05T00:36:24.389Z,25.13
2018-07-05T00:38:51.037Z,25.10
2018-07-05T00:41:17.704Z,25.11
2018-07-05T00:43:44.351Z,25.09
2018-07-05T00:46:11.026Z,25.08
2018-07-05T00:48:37.665Z,25.07
2018-07-05T00:51:04.316Z,25.09
2018-07-05T00:53:30.973Z,25.12
2018-07-05T00:55:57.636Z,25.06
2018-07-05T00:58:24.334Z,25.07
2018-07-05T01:00:51.006Z,25.07
2018-07-05T01:03:17.671Z,25.04
2018-07-05T01:05:44.363Z,25.04
2018-07-05T01:08:11.058Z,25.01
2018-07-05T01:10:37.684Z,25.04
2018-07-05T01:13:04.343Z,25.03
2018-07-05T01:15:31.079Z,25.05
2018-07-05T01:17:57.686Z,25.00
2018-07-05T01:20:24.344Z,24.99
2018-07-05T01:22:51.027Z,24.99
2018-07-05T01:25:17.801Z,25.00
2018-07-05T01:27:44.459Z,24.93
2018-07-05T01:30:11.113Z,24.98
2018-07-05T01:32:37.770Z,25.00
2018-07-05T01:35:04.424Z,24.96
2018-07-05T01:37:31.078Z,24.96
2018-07-05T01:39:57.733Z,25.00
2018-07-05T01:42:24.392Z,24.95
2018-07-05T01:44:51.053Z,24.95
2018-07-05T01:47:17.702Z,24.93
2018-07-05T01:49:44.403Z,24.91
2018-07-05T01:52:11.049Z,24.94
2018-07-05T01:54:37.740Z,24.91
2018-07-05T01:57:04.397Z,24.91
2018-07-05T01:59:32.787Z,24.87
2018-07-05T02:01:57.754Z,24.91
2018-07-05T02:04:24.408Z,24.87
2018-07-05T02:06:51.076Z,24.88
2018-07-05T02:09:17.728Z,24.84
2018-07-05T02:11:44.398Z,24.85
2018-07-05T02:14:11.073Z,24.86
2018-07-05T02:16:37.754Z,24.89
2018-07-05T02:19:04.396Z,24.88
2018-07-05T02:21:31.154Z,24.83
2018-07-05T02:23:57.840Z,24.79
2018-07-05T02:26:24.460Z,24.83
2018-07-05T02:28:51.149Z,24.81
2018-07-05T02:31:17.792Z,24.78
2018-07-05T02:33:44.440Z,24.77
2018-07-05T02:36:11.133Z,24.80
2018-07-05T02:38:37.785Z,24.78
2018-07-05T02:41:04.475Z,24.78
2018-07-05T02:43:31.126Z,24.77
2018-07-05T02:45:57.782Z,24.78
2018-07-05T02:48:24.463Z,24.71
2018-07-05T02:50:51.091Z,24.71
2018-07-05T02:53:17.746Z,24.75
2018-07-05T02:55:44.438Z,24.71
2018-07-05T02:58:11.089Z,24.69
2018-07-05T03:00:37.841Z,24.70
2018-07-05T03:03:04.473Z,24.70
2018-07-05T03:05:31.122Z,24.74
2018-07-05T03:07:57.820Z,24.49
2018-07-05T03:10:24.505Z,24.42
2018-07-05T03:12:51.162Z,24.43
2018-07-05T03:15:17.845Z,24.43
2018-07-05T03:17:44.565Z,24.36
2018-07-05T03:20:11.237Z,24.31
2018-07-05T03:22:37.986Z,24.32
2018-07-05T03:25:04.664Z,24.40
2018-07-05T03:27:31.339Z,24.48
2018-07-05T03:29:58.025Z,24.43
2018-07-05T03:32:24.670Z,24.39
2018-07-05T03:34:51.333Z,24.33
2018-07-05T03:37:18.022Z,24.38
2018-07-05T03:39:44.765Z,24.43
2018-07-05T03:42:11.378Z,24.37
2018-07-05T03:44:38.041Z,24.37
2018-07-05T03:47:04.696Z,24.36
2018-07-05T03:49:31.423Z,24.54
2018-07-05T03:51:58.073Z,24.49
2018-07-05T03:54:24.772Z,24.42
2018-07-05T03:56:52.434Z,24.42
2018-07-05T03:59:18.073Z,24.39
2018-07-05T04:01:44.827Z,24.48
2018-07-05T04:04:11.488Z,24.56
2018-07-05T04:06:38.135Z,24.55
2018-07-05T04:09:04.827Z,24.56
2018-07-05T04:11:31.485Z,24.62
2018-07-05T04:13:58.178Z,24.69
2018-07-05T04:16:24.826Z,24.80
2018-07-05T04:18:51.474Z,24.80
2018-07-05T04:21:18.150Z,24.90
2018-07-05T04:23:44.845Z,24.93
2018-07-05T04:26:11.492Z,24.87
2018-07-05T04:28:38.177Z,24.94
2018-07-05T04:31:04.880Z,25.02
2018-07-05T04:33:31.527Z,25.01
2018-07-05T04:35:58.229Z,25.05
2018-07-05T04:38:24.887Z,25.00
2018-07-05T04:40:51.540Z,24.92
2018-07-05T04:43:18.206Z,24.98
2018-07-05T04:45:44.860Z,25.14
2018-07-05T04:48:11.510Z,25.14
2018-07-05T04:50:38.169Z,25.15
2018-07-05T04:53:04.828Z,25.21
2018-07-05T04:55:31.504Z,25.21
2018-07-05T04:57:58.153Z,25.24
2018-07-05T05:00:28.135Z,25.19
2018-07-05T05:02:54.767Z,25.23
2018-07-05T05:05:21.440Z,25.30
2018-07-05T05:07:48.078Z,25.33
2018-07-05T05:10:14.718Z,25.42
2018-07-05T05:12:41.363Z,25.46
2018-07-05T05:15:08.016Z,25.47
2018-07-05T05:17:34.685Z,25.60
2018-07-05T05:20:01.328Z,25.54
2018-07-05T05:22:28.043Z,25.36
2018-07-05T05:24:54.652Z,25.27
2018-07-05T05:27:21.311Z,25.30
2018-07-05T05:29:47.986Z,25.29
2018-07-05T05:32:14.625Z,25.41
2018-07-05T05:34:41.326Z,25.37
2018-07-05T05:37:08.019Z,25.30
2018-07-05T05:39:34.613Z,25.47
2018-07-05T05:42:01.270Z,25.42
2018-07-05T05:44:27.917Z,25.42
2018-07-05T05:46:54.631Z,25.46
2018-07-05T05:49:21.321Z,25.49
2018-07-05T05:51:48.024Z,25.54
2018-07-05T05:54:14.712Z,25.52
2018-07-05T05:56:41.427Z,25.52
2018-07-05T05:59:08.038Z,25.59
2018-07-05T06:01:34.670Z,25.68
2018-07-05T06:04:02.243Z,25.75
2018-07-05T06:06:28.851Z,25.63
2018-07-05T06:08:55.525Z,25.73
2018-07-05T06:11:22.160Z,25.61
2018-07-05T06:13:48.838Z,25.58
2018-07-05T06:16:15.493Z,25.53
2018-07-05T06:18:42.194Z,25.55
2018-07-05T06:21:08.834Z,25.37
2018-07-05T06:23:35.473Z,25.16
2018-07-05T06:26:02.145Z,25.21
2018-07-05T06:28:28.784Z,25.26
2018-07-05T06:30:55.815Z,25.51
2018-07-05T06:33:22.468Z,25.64
2018-07-05T06:35:49.199Z,25.72
2018-07-05T06:38:15.852Z,25.85
2018-07-05T06:40:42.498Z,25.79
2018-07-05T06:43:09.135Z,25.62
2018-07-05T06:45:35.828Z,25.67
2018-07-05T06:48:02.475Z,25.74
2018-07-05T06:50:29.156Z,25.72
2018-07-05T06:52:55.809Z,25.84
2018-07-05T06:55:22.465Z,25.80
2018-07-05T06:57:49.134Z,25.75
2018-07-05T07:00:15.814Z,25.86
2018-07-05T07:02:42.493Z,25.86
2018-07-05T07:05:09.143Z,25.76
2018-07-05T07:07:35.790Z,25.96
2018-07-05T07:10:02.557Z,25.88
2018-07-05T07:12:29.222Z,25.88
2018-07-05T07:14:55.918Z,25.98
2018-07-05T07:17:22.565Z,25.93
2018-07-05T07:19:49.205Z,25.94
2018-07-05T07:22:15.894Z,25.98
2018-07-05T07:24:42.523Z,25.92
2018-07-05T07:27:09.160Z,25.90
2018-07-05T07:29:35.891Z,25.91
2018-07-05T07:32:02.612Z,25.97
2018-07-05T07:34:29.587Z,26.02
2018-07-05T07:36:56.278Z,25.95
2018-07-05T07:39:23.036Z,26.09
2018-07-05T07:41:49.666Z,25.92
2018-07-05T07:44:16.267Z,25.78
2018-07-05T07:46:42.975Z,25.62
2018-07-05T07:49:09.616Z,25.49
2018-07-05T07:51:36.444Z,25.44
2018-07-05T07:54:03.049Z,25.49
2018-07-05T07:56:29.685Z,25.48
2018-07-05T07:58:56.361Z,25.55
2018-07-05T08:01:22.994Z,25.71
2018-07-05T08:03:49.633Z,25.68
2018-07-05T08:06:16.268Z,25.67
2018-07-05T08:08:42.906Z,25.70
2018-07-05T08:11:09.694Z,25.66
2018-07-05T08:13:36.421Z,25.71
2018-07-05T08:16:03.082Z,25.60
2018-07-05T08:18:29.743Z,25.68
2018-07-05T08:20:56.589Z,25.63
2018-07-05T08:23:23.322Z,25.59
2018-07-05T08:25:50.982Z,25.65
2018-07-05T08:28:17.606Z,25.67
2018-07-05T08:30:44.304Z,25.71
2018-07-05T08:33:10.994Z,25.62
2018-07-05T08:35:37.675Z,25.71
2018-07-05T08:38:04.405Z,25.62
2018-07-05T08:40:31.048Z,25.58
2018-07-05T08:42:57.691Z,25.56
2018-07-05T08:45:24.338Z,25.49
2018-07-05T08:47:50.975Z,25.62
2018-07-05T08:50:17.607Z,25.72
2018-07-05T08:52:44.260Z,25.71
2018-07-05T08:55:10.910Z,25.73
2018-07-05T08:57:37.824Z,25.72
2018-07-05T09:00:04.429Z,25.82
2018-07-05T09:02:31.083Z,25.90
2018-07-05T09:04:57.723Z,25.98
2018-07-05T09:07:24.380Z,25.97
2018-07-05T09:09:51.054Z,25.74
2018-07-05T09:12:17.748Z,25.59
2018-07-05T09:14:44.384Z,25.51
2018-07-05T09:17:11.077Z,25.45
2018-07-05T09:19:37.741Z,25.46
2018-07-05T09:22:04.343Z,25.48
2018-07-05T09:24:31.025Z,25.34
2018-07-05T09:26:57.687Z,25.44
2018-07-05T09:29:24.295Z,25.45
2018-07-05T09:31:50.931Z,25.36
2018-07-05T09:34:17.610Z,25.27
2018-07-05T09:36:44.254Z,25.43
2018-07-05T09:39:10.887Z,25.28
2018-07-05T09:41:37.527Z,25.28
2018-07-05T09:44:04.170Z,25.31
2018-07-05T09:46:30.803Z,25.33
2018-07-05T09:48:57.442Z,25.35
2018-07-05T09:51:24.132Z,25.30
2018-07-05T09:53:50.858Z,25.21
2018-07-05T09:56:17.493Z,25.17
2018-07-05T09:58:44.132Z,25.29
2018-07-05T10:01:10.819Z,25.57
2018-07-05T10:03:37.429Z,25.74
2018-07-05T10:06:04.054Z,25.72
2018-07-05T10:08:30.701Z,25.71
2018-07-05T10:10:57.354Z,25.80
2018-07-05T10:13:24.185Z,25.79
2018-07-05T10:15:50.766Z,25.66
2018-07-05T10:18:17.434Z,25.59
2018-07-05T10:20:44.042Z,25.58
2018-07-05T10:23:10.782Z,25.63
2018-07-05T10:25:37.424Z,25.56
2018-07-05T10:28:04.062Z,25.60
2018-07-05T10:30:30.767Z,25.59
2018-07-05T10:32:57.426Z,25.65
2018-07-05T10:35:24.039Z,25.81
2018-07-05T10:37:50.677Z,25.71
2018-07-05T10:40:17.317Z,25.42
2018-07-05T10:42:43.999Z,25.36
2018-07-05T10:45:10.680Z,25.25
2018-07-05T10:47:37.384Z,25.31
2018-07-05T10:50:03.999Z,25.18
2018-07-05T10:52:30.640Z,25.22
2018-07-05T10:54:57.378Z,25.12
2018-07-05T10:57:24.034Z,25.32
2018-07-05T10:59:50.755Z,25.02
2018-07-05T11:02:17.411Z,25.22
2018-07-05T11:04:44.044Z,25.40
2018-07-05T11:07:10.851Z,25.32
2018-07-05T11:09:37.531Z,25.40
2018-07-05T11:12:04.203Z,25.33
2018-07-05T11:14:31.238Z,25.46
2018-07-05T11:16:57.868Z,25.46
2018-07-05T11:19:24.513Z,25.34
2018-07-05T11:21:51.200Z,25.26
2018-07-05T11:24:17.848Z,25.29
2018-07-05T11:26:44.497Z,25.39
2018-07-05T11:29:11.192Z,25.36
2018-07-05T11:31:37.863Z,25.46
2018-07-05T11:34:04.860Z,25.40
2018-07-05T11:36:31.557Z,25.24
2018-07-05T11:38:58.165Z,25.23
2018-07-05T11:41:24.795Z,25.34
2018-07-05T11:43:51.437Z,25.34
2018-07-05T11:46:18.180Z,25.43
2018-07-05T11:48:44.796Z,25.32
2018-07-05T11:51:11.448Z,25.29
2018-07-05T11:53:38.241Z,25.13
2018-07-05T11:56:04.904Z,25.26
2018-07-05T11:58:31.557Z,25.21
2018-07-05T12:00:58.219Z,25.32
2018-07-05T12:03:24.873Z,25.35
2018-07-05T12:05:52.517Z,25.35
2018-07-05T12:08:19.210Z,25.49
2018-07-05T12:10:45.852Z,25.46
2018-07-05T12:13:12.492Z,25.49
2018-07-05T12:15:39.154Z,25.36
2018-07-05T12:18:05.833Z,25.33
2018-07-05T12:20:32.467Z,25.32
2018-07-05T12:22:59.151Z,25.31
2018-07-05T12:25:25.856Z,25.35
2018-07-05T12:27:52.516Z,25.22
2018-07-05T12:30:19.167Z,25.56
2018-07-05T12:32:45.804Z,25.52
2018-07-05T12:35:13.464Z,25.48
2018-07-05T12:37:40.114Z,25.43
2018-07-05T12:40:06.754Z,25.21
2018-07-05T12:42:33.389Z,25.30
2018-07-05T12:45:00.109Z,25.72
2018-07-05T12:47:26.711Z,25.73
2018-07-05T12:49:53.393Z,25.78
2018-07-05T12:52:22.184Z,25.95
2018-07-05T12:54:46.755Z,26.07
2018-07-05T12:57:13.384Z,25.93
2018-07-05T12:59:40.046Z,25.73
2018-07-05T13:02:06.706Z,25.70
2018-07-05T13:04:33.378Z,25.68
2018-07-05T13:07:00.133Z,25.70
2018-07-05T13:09:26.751Z,25.65
2018-07-05T13:11:53.396Z,25.46
2018-07-05T13:14:20.042Z,25.45
2018-07-05T13:16:46.698Z,25.49
2018-07-05T13:19:13.404Z,25.40
2018-07-05T13:21:40.043Z,25.30
2018-07-05T13:24:06.761Z,25.64
2018-07-05T13:26:33.552Z,25.88
2018-07-05T13:29:00.229Z,25.91
2018-07-05T13:31:26.847Z,25.90
2018-07-05T13:33:53.505Z,25.74
2018-07-05T13:36:20.147Z,25.62
2018-07-05T13:38:46.843Z,25.82
2018-07-05T13:41:13.527Z,25.67
2018-07-05T13:43:40.140Z,25.57
2018-07-05T13:46:06.777Z,25.61
2018-07-05T13:48:33.460Z,25.61
2018-07-05T13:51:00.151Z,25.45
2018-07-05T13:53:26.788Z,25.35
2018-07-05T13:55:53.485Z,25.41
2018-07-05T13:58:20.129Z,25.49
2018-07-05T14:00:46.783Z,25.67
2018-07-05T14:03:13.495Z,25.60
2018-07-05T14:05:40.126Z,25.61
2018-07-05T14:08:06.809Z,25.81
2018-07-05T14:10:34.629Z,25.95
2018-07-05T14:13:01.270Z,25.98
2018-07-05T14:15:27.916Z,25.84
2018-07-05T14:17:54.556Z,25.68
2018-07-05T14:20:21.267Z,25.73
2018-07-05T14:22:47.903Z,25.72
2018-07-05T14:25:14.560Z,25.71
2018-07-05T14:27:41.197Z,25.61
2018-07-05T14:30:07.879Z,25.55
2018-07-05T14:32:34.516Z,25.43
2018-07-05T14:35:01.200Z,25.46
2018-07-05T14:37:27.843Z,25.64
2018-07-05T14:39:54.502Z,25.59
2018-07-05T14:42:21.139Z,25.82
2018-07-05T14:44:47.866Z,26.04
2018-07-05T14:47:14.513Z,25.97
2018-07-05T14:49:41.147Z,25.80
2018-07-05T14:52:07.793Z,25.59
2018-07-05T14:54:34.508Z,25.56
2018-07-05T14:57:01.155Z,25.57
2018-07-05T14:59:27.849Z,25.64
2018-07-05T15:01:54.482Z,25.75
2018-07-05T15:04:21.203Z,25.84
2018-07-05T15:06:47.827Z,26.00
2018-07-05T15:09:14.462Z,26.10
2018-07-05T15:14:26.860Z,25.62
2018-07-05T15:16:53.579Z,25.50
2018-07-05T15:19:20.183Z,25.62
2018-07-05T15:21:46.820Z,25.64
2018-07-05T15:24:13.479Z,25.72
2018-07-05T15:26:40.113Z,25.96
2018-07-05T15:29:06.799Z,26.03
2018-07-05T15:31:33.438Z,26.19
2018-07-05T15:34:00.081Z,25.97
2018-07-05T15:36:26.749Z,25.78
2018-07-05T15:38:53.445Z,25.39
2018-07-05T15:41:20.064Z,25.52
2018-07-05T15:43:46.735Z,25.61
2018-07-05T15:46:13.357Z,25.73
2018-07-05T15:48:39.985Z,25.96
2018-07-05T15:51:06.628Z,26.10
2018-07-05T15:53:33.278Z,25.89
2018-07-05T15:55:59.953Z,25.68
2018-07-05T15:58:26.620Z,25.53
2018-07-05T16:00:53.211Z,25.48
2018-07-05T16:03:19.846Z,25.43
2018-07-05T16:05:46.469Z,25.63
2018-07-05T16:08:13.115Z,25.70
2018-07-05T16:10:39.751Z,25.72
2018-07-05T16:13:06.395Z,25.93
2018-07-05T16:15:33.033Z,26.04
2018-07-05T16:17:59.668Z,26.10
2018-07-05T16:20:26.307Z,26.00
2018-07-05T16:22:52.947Z,25.87
2018-07-05T16:25:19.654Z,25.66
2018-07-05T16:27:46.286Z,25.56
2018-07-05T16:30:12.933Z,25.63
2018-07-05T16:32:39.572Z,25.79
2018-07-05T16:35:06.252Z,25.97
2018-07-05T16:37:32.928Z,26.05
2018-07-05T16:39:59.555Z,26.06
2018-07-05T16:42:26.315Z,26.06
2018-07-05T16:44:52.888Z,26.19
2018-07-05T16:47:19.537Z,26.23
2018-07-05T16:49:46.193Z,25.81
2018-07-05T16:52:12.831Z,25.47
2018-07-05T16:54:39.538Z,25.56
2018-07-05T16:57:06.181Z,25.60
2018-07-05T16:59:32.864Z,25.74
2018-07-05T17:01:59.507Z,25.94
2018-07-05T17:04:26.157Z,26.05
2018-07-05T17:06:52.810Z,26.00
2018-07-05T17:09:19.461Z,25.74
2018-07-05T17:11:46.101Z,25.53
2018-07-05T17:14:12.785Z,25.60
2018-07-05T17:16:39.423Z,25.64
2018-07-05T17:19:06.124Z,25.72
2018-07-05T17:21:32.752Z,25.83
2018-07-05T17:23:59.441Z,25.86
2018-07-05T17:26:26.169Z,26.10
2018-07-05T17:28:53.381Z,26.15
2018-07-05T17:31:20.073Z,26.22
2018-07-05T17:33:46.708Z,25.97
2018-07-05T17:36:13.351Z,25.69
2018-07-05T17:38:40.038Z,25.48
2018-07-05T17:41:06.709Z,25.25
2018-07-05T17:43:33.402Z,25.12
2018-07-05T17:46:00.097Z,24.97
2018-07-05T17:48:26.669Z,24.91
2018-07-05T17:50:53.405Z,24.94
2018-07-05T17:53:20.040Z,24.84
2018-07-05T17:55:46.718Z,24.75
2018-07-05T17:58:13.362Z,25.10
2018-07-05T18:00:39.992Z,25.19
2018-07-05T18:03:06.641Z,25.30
2018-07-05T18:05:33.268Z,25.43
2018-07-05T18:07:59.906Z,25.47
2018-07-05T18:10:26.543Z,25.44
2018-07-05T18:12:53.221Z,25.50
2018-07-05T18:15:19.858Z,25.60
2018-07-05T18:17:46.539Z,25.64
2018-07-05T18:20:13.179Z,25.77
2018-07-05T18:22:39.876Z,25.79
2018-07-05T18:25:06.513Z,25.88
2018-07-05T18:27:33.174Z,25.86
2018-07-05T18:29:59.788Z,25.87
2018-07-05T18:32:26.450Z,25.88
2018-07-05T18:34:53.095Z,25.93
2018-07-05T18:37:19.787Z,25.93
2018-07-05T18:39:46.533Z,25.93
2018-07-05T18:42:13.173Z,25.96
2018-07-05T18:44:39.863Z,25.97
2018-07-05T18:47:06.543Z,25.99
2018-07-05T18:49:33.354Z,26.00
2018-07-05T18:52:00.003Z,26.00
2018-07-05T18:54:26.630Z,26.03
2018-07-05T18:56:53.320Z,26.05
2018-07-05T18:59:19.948Z,26.04
2018-07-05T19:01:46.599Z,26.06
2018-07-05T19:04:13.484Z,26.06
2018-07-05T19:06:40.109Z,26.04
2018-07-05T19:09:06.747Z,26.06
2018-07-05T19:11:33.537Z,26.08
2018-07-05T19:14:00.227Z,26.07
2018-07-05T19:16:27.060Z,26.06
2018-07-05T19:18:53.554Z,26.04
2018-07-05T19:21:20.289Z,26.05
2018-07-05T19:23:46.893Z,26.01
2018-07-05T19:26:13.583Z,26.02
2018-07-05T19:28:40.260Z,26.01
2018-07-05T19:31:06.895Z,26.04
2018-07-05T19:33:33.545Z,26.02
2018-07-05T19:36:00.228Z,26.02
2018-07-05T19:38:26.857Z,26.02
2018-07-05T19:40:53.495Z,25.98
2018-07-05T19:43:20.201Z,25.97
2018-07-05T19:45:46.840Z,25.99
2018-07-05T19:48:13.463Z,25.94
2018-07-05T19:50:40.108Z,25.95
2018-07-05T19:53:06.791Z,25.92
2018-07-05T19:55:33.475Z,25.94
2018-07-05T19:58:00.115Z,25.95
2018-07-05T20:00:26.846Z,25.95
2018-07-05T20:02:53.424Z,25.94
2018-07-05T20:05:20.147Z,25.95
2018-07-05T20:07:46.781Z,25.93
2018-07-05T20:10:13.463Z,25.91
2018-07-05T20:12:40.111Z,25.92
2018-07-05T20:15:06.883Z,25.91
2018-07-05T20:17:33.506Z,25.92
2018-07-05T20:20:00.157Z,25.89
2018-07-05T20:22:26.844Z,25.91
2018-07-05T20:24:53.517Z,25.88
2018-07-05T20:27:20.125Z,25.87
2018-07-05T20:29:46.806Z,25.86
2018-07-05T20:32:13.463Z,25.84
2018-07-05T20:34:40.120Z,25.85
2018-07-05T20:37:06.753Z,25.86
2018-07-05T20:39:33.450Z,25.83
2018-07-05T20:42:03.131Z,25.85
2018-07-05T20:44:29.760Z,25.84
2018-07-05T20:46:56.403Z,25.81
2018-07-05T20:49:23.041Z,25.82
2018-07-05T20:51:49.712Z,25.81
2018-07-05T20:54:16.315Z,25.80
2018-07-05T20:56:42.979Z,25.80
2018-07-05T20:59:09.700Z,25.79
2018-07-05T21:01:36.251Z,25.83
2018-07-05T21:04:02.895Z,25.76
2018-07-05T21:06:29.544Z,25.77
2018-07-05T21:08:56.190Z,25.75
2018-07-05T21:11:24.931Z,25.77
2018-07-05T21:13:49.479Z,25.75
2018-07-05T21:16:16.125Z,25.74
2018-07-05T21:18:42.793Z,25.74
2018-07-05T21:21:09.387Z,25.73
2018-07-05T21:23:36.023Z,25.71
2018-07-05T21:26:02.674Z,25.74
2018-07-05T21:28:29.306Z,25.69
2018-07-05T21:30:55.958Z,25.70
2018-07-05T21:33:22.588Z,25.70
2018-07-05T21:35:49.236Z,25.68
2018-07-05T21:38:15.865Z,25.69
2018-07-05T21:40:42.501Z,25.68
2018-07-05T21:43:09.144Z,25.67
2018-07-05T21:45:35.788Z,25.68
2018-07-05T21:48:02.554Z,25.67
2018-07-05T21:50:29.194Z,25.63
2018-07-05T21:52:55.833Z,25.64
2018-07-05T21:55:22.469Z,25.58
2018-07-05T21:57:49.123Z,25.64
2018-07-05T22:00:16.948Z,25.65
2018-07-05T22:02:42.411Z,25.63
2018-07-05T22:05:09.054Z,25.59
2018-07-05T22:07:35.693Z,25.59
2018-07-05T22:10:02.336Z,25.60
2018-07-05T22:12:28.970Z,25.57
2018-07-05T22:14:55.609Z,25.58
2018-07-05T22:17:22.244Z,25.57
2018-07-05T22:19:48.885Z,25.58
2018-07-05T22:22:15.518Z,25.58
2018-07-05T22:24:42.158Z,25.55
2018-07-05T22:27:08.787Z,25.55
2018-07-05T22:29:35.424Z,25.53
2018-07-05T22:32:02.064Z,25.53
2018-07-05T22:34:28.701Z,25.52
2018-07-05T22:36:55.434Z,25.50
2018-07-05T22:39:22.074Z,25.52
2018-07-05T22:41:48.810Z,25.51
2018-07-05T22:44:15.437Z,25.47
2018-07-05T22:46:42.065Z,25.48
2018-07-05T22:49:08.714Z,25.46
2018-07-05T22:51:35.351Z,25.46
2018-07-05T22:54:01.989Z,25.46
2018-07-05T22:56:28.623Z,25.46
2018-07-05T22:58:55.258Z,25.47
2018-07-05T23:01:21.932Z,25.45
2018-07-05T23:03:48.551Z,25.45
2018-07-05T23:06:15.188Z,25.42
2018-07-05T23:08:41.868Z,25.44
2018-07-05T23:11:08.466Z,25.40
2018-07-05T23:13:35.190Z,25.39
2018-07-05T23:16:01.827Z,25.41
2018-07-05T23:18:28.466Z,25.39
2018-07-05T23:20:55.117Z,25.37
2018-07-05T23:23:21.748Z,25.38
2018-07-05T23:25:48.423Z,25.37
2018-07-05T23:28:15.058Z,25.37
2018-07-05T23:30:41.708Z,25.34
2018-07-05T23:33:08.336Z,25.33
2018-07-05T23:35:34.983Z,25.34
2018-07-05T23:38:01.612Z,25.35
2018-07-05T23:40:28.257Z,25.33
2018-07-05T23:42:54.886Z,25.32
2018-07-05T23:45:21.532Z,25.31
2018-07-05T23:47:48.181Z,25.31
2018-07-05T23:50:14.822Z,25.30
2018-07-05T23:52:41.471Z,25.31
2018-07-05T23:55:10.797Z,25.30
2018-07-05T23:57:37.486Z,25.28
